Impacts METAR Board INFO
IDs:

KBOS - Boston/Logan Intl, MA, US

Updated at: 0430 UTC 21 Jan 2018
Potential Impact None Slight Moderate High
Time20/16Z 20/17Z 20/18Z 20/19Z 20/20Z 20/21Z 20/22Z 20/23Z 21/00Z 21/01Z 21/02Z 21/03Z 21/04Z
VIS10 10 10 10 10 10 10 10 10 10 10 10 10
CIG150 150 160 160 230 300 300 -- 300 300 300 300 300
CoverBKNBKNBKNBKNBKNBKNBKNSCTBKNBKNBKNBKNBKN
FltCatVFRVFRVFRVFRVFRVFRVFRVFRVFRVFRVFRVFRVFR
WX--------------------------
WDir250260250260240250240240240240250260260
WSpd15 20 15 14 13 14 12 10 10 9 10 9 10
WGst23 27 -- 22 25 -- 20 -- -- -- 18 -- --
Raw hourly METARs
KBOS 201554Z 25015G23KT 10SM FEW120 BKN150 BKN220 07/M05 A2969 RMK AO2 PK WND 24026/1455 SLP052 T00671050
KBOS 201654Z 26020G27KT 10SM FEW120 BKN150 BKN220 07/M04 A2967 RMK AO2 PK WND 25029/1612 SLP048 T00721044
KBOS 201754Z 25015KT 10SM FEW120 BKN160 BKN220 08/M04 A2967 RMK AO2 PK WND 25026/1719 SLP045 T00781039 10078 20011 58007
KBOS 201854Z 26014G22KT 10SM FEW120 BKN160 BKN220 08/M03 A2969 RMK AO2 PK WND 26027/1756 SLP052 T00781033
KBOS 201954Z 24013G25KT 10SM FEW160 BKN230 08/M03 A2971 RMK AO2 SLP062 T00781028
KBOS 202054Z 25014KT 10SM FEW170 SCT230 BKN300 08/M03 A2974 RMK AO2 SLP072 T00831028 53027
KBOS 202154Z 24012G20KT 10SM FEW170 SCT230 BKN300 08/M03 A2977 RMK AO2 SLP080 T00781028
KBOS 202254Z 24010KT 10SM FEW170 SCT230 SCT300 07/M03 A2982 RMK AO2 SLP097 T00671028
KBOS 202354Z 24010KT 10SM FEW230 BKN300 06/M03 A2986 RMK AO2 SLP110 T00611028 10083 20056 53039
KBOS 210054Z 24009KT 10SM FEW230 BKN300 06/M03 A2990 RMK AO2 SLP124 T00611028
KBOS 210154Z 25010G18KT 10SM FEW230 BKN300 06/M02 A2993 RMK AO2 SLP133 T00561022
KBOS 210254Z 26009KT 10SM FEW250 BKN300 06/M02 A2994 RMK AO2 SLP139 T00561022 51028
KBOS 210354Z 26010KT 10SM BKN300 05/M02 A2995 RMK AO2 SLP142 T00501022